Time;durP1;ratioP1;P1;durP2;ratioP2;P2;SDS_P1;SDS_P2;PMS_P1;PMS_P2;Temp;Humidity;BMP_temperature;BMP_pressure;BME280_temperature;BME280_humidity;BME280_pressure;Samples;Min_cycle;Max_cycle;Signal;HPM_P1;HPM_P2
2023/06/10 00:01:39;;;;;;;7.28;2.72;;;;;;;18.63;71.88;101831.19;6193445;28;20230;-67
2023/06/10 00:04:59;;;;;;;7.72;3.40;;;;;;;18.74;71.79;101833.63;6204262;28;20233;-65
2023/06/10 00:08:20;;;;;;;3.70;2.75;;;;;;;18.71;72.14;101823.00;6187258;28;20336;-66
2023/06/10 00:11:43;;;;;;;3.60;2.50;;;;;;;18.76;71.56;101822.53;6202798;28;20229;-67
2023/06/10 00:15:04;;;;;;;4.45;3.72;;;;;;;18.64;71.54;101830.19;6205804;28;20931;-66
2023/06/10 00:18:26;;;;;;;3.08;2.78;;;;;;;18.52;71.56;101831.50;6194791;28;22850;-67
2023/06/10 00:21:47;;;;;;;5.38;3.03;;;;;;;18.65;71.49;101828.31;6204097;28;20233;-66
2023/06/10 00:25:10;;;;;;;6.25;3.08;;;;;;;18.56;71.40;101830.16;6189932;28;20233;-67
2023/06/10 00:28:32;;;;;;;5.00;2.70;;;;;;;18.46;71.30;101825.84;6198376;28;20232;-67
2023/06/10 00:31:57;;;;;;;7.90;4.03;;;;;;;18.34;71.49;101827.94;6185647;28;20281;-67
2023/06/10 00:35:18;;;;;;;3.40;2.38;;;;;;;18.43;71.53;101828.84;6195576;28;20237;-66
2023/06/10 00:38:40;;;;;;;3.70;2.05;;;;;;;18.35;70.98;101825.09;6200906;28;20233;-67
2023/06/10 00:42:01;;;;;;;3.33;2.30;;;;;;;18.27;70.79;101829.66;6202821;28;20816;-66
2023/06/10 00:45:23;;;;;;;3.25;2.42;;;;;;;18.06;70.81;101826.44;6199521;28;20233;-67
2023/06/10 00:48:46;;;;;;;2.22;2.03;;;;;;;17.97;70.93;101833.72;6200441;28;20240;-66
2023/06/10 00:52:10;;;;;;;4.18;2.50;;;;;;;17.97;70.95;101833.72;6218632;28;20225;-68
2023/06/10 00:55:31;;;;;;;3.50;2.28;;;;;;;18.10;70.86;101827.84;6199064;28;21432;-66
2023/06/10 00:58:52;;;;;;;4.50;2.75;;;;;;;18.18;70.35;101833.34;6202511;28;20228;-67
2023/06/10 01:02:15;;;;;;;2.67;2.22;;;;;;;17.78;70.44;101841.25;6210969;28;20229;-67
2023/06/10 01:05:37;;;;;;;3.15;2.35;;;;;;;17.85;70.45;101845.06;6206095;28;20557;-66
2023/06/10 01:09:03;;;;;;;3.50;2.58;;;;;;;17.68;70.50;101837.75;6212490;28;20237;-67
2023/06/10 01:12:32;;;;;;;2.55;1.92;;;;;;;17.69;70.75;101840.31;6192291;28;20512;-67
2023/06/10 01:15:54;;;;;;;4.07;2.30;;;;;;;17.77;70.67;101842.28;6218740;28;20602;-67
2023/06/10 01:19:17;;;;;;;2.78;2.25;;;;;;;17.60;70.68;101845.88;6203379;28;20232;-67
2023/06/10 01:22:39;;;;;;;3.85;2.78;;;;;;;17.51;71.08;101839.50;6198098;28;20236;-67
2023/06/10 01:26:03;;;;;;;2.75;2.35;;;;;;;17.58;71.07;101842.47;6206666;28;20249;-67
2023/06/10 01:29:32;;;;;;;5.93;2.05;;;;;;;17.48;70.94;101850.72;6200331;28;20257;-66
2023/06/10 01:32:53;;;;;;;4.70;2.90;;;;;;;17.38;71.21;101847.19;6197190;28;20231;-66
2023/06/10 01:36:18;;;;;;;4.75;2.92;;;;;;;17.42;71.25;101856.75;6208237;28;20233;-67
2023/06/10 01:39:41;;;;;;;4.22;2.60;;;;;;;17.37;71.04;101845.47;6184928;28;20261;-66
2023/06/10 01:43:03;;;;;;;5.40;2.28;;;;;;;17.56;71.30;101851.63;6193339;28;20314;-67
2023/06/10 01:46:24;;;;;;;3.72;2.58;;;;;;;17.39;70.75;101844.31;6201417;28;20221;-67
2023/06/10 01:49:47;;;;;;;4.40;2.38;;;;;;;17.41;71.08;101846.88;6193114;28;20328;-67
2023/06/10 01:53:08;;;;;;;6.43;2.58;;;;;;;17.19;70.91;101845.47;6173772;28;20232;-67
2023/06/10 01:56:30;;;;;;;2.10;2.00;;;;;;;17.19;71.33;101845.47;6204735;28;20229;-66
2023/06/10 01:59:51;;;;;;;2.03;1.83;;;;;;;17.32;71.21;101851.41;6207216;28;20269;-67
2023/06/10 02:03:12;;;;;;;7.47;3.20;;;;;;;17.11;71.01;101839.06;6192006;28;20261;-67
2023/06/10 02:06:34;;;;;;;4.38;2.60;;;;;;;17.12;71.31;101841.66;6191298;28;20588;-67
2023/06/10 02:09:55;;;;;;;2.45;2.08;;;;;;;17.09;71.33;101830.19;6204466;28;20607;-67
2023/06/10 02:13:17;;;;;;;2.83;2.50;;;;;;;17.18;71.22;101835.59;6196098;28;20554;-65
2023/06/10 02:16:39;;;;;;;3.10;1.85;;;;;;;17.20;71.09;101841.75;6203695;28;20232;-67
2023/06/10 02:20:04;;;;;;;4.63;2.28;;;;;;;16.97;71.36;101835.03;6206614;28;20586;-65
2023/06/10 02:23:25;;;;;;;3.45;2.15;;;;;;;16.96;71.17;101837.91;6193549;28;20599;-67
2023/06/10 02:26:47;;;;;;;3.60;2.35;;;;;;;17.12;71.09;101838.09;6201510;28;20232;-66
2023/06/10 02:30:11;;;;;;;3.20;2.20;;;;;;;17.05;71.05;101840.56;6187843;28;20253;-65
2023/06/10 02:33:33;;;;;;;4.63;1.80;;;;;;;16.96;70.92;101846.94;6198444;28;20518;-67
2023/06/10 02:36:54;;;;;;;3.08;2.78;;;;;;;16.94;71.13;101845.38;6208264;28;20233;-67
2023/06/10 02:40:16;;;;;;;2.92;2.22;;;;;;;17.02;70.86;101843.59;6189850;28;20225;-65
2023/06/10 02:43:38;;;;;;;4.88;2.60;;;;;;;16.84;70.49;101844.56;6199411;28;20260;-67
2023/06/10 02:47:01;;;;;;;2.90;2.20;;;;;;;16.93;71.33;101855.41;6200073;28;20519;-67
2023/06/10 02:50:23;;;;;;;3.85;1.88;;;;;;;16.84;71.45;101848.16;6199750;28;20316;-67
2023/06/10 02:53:52;;;;;;;1.67;1.30;;;;;;;17.07;70.85;101849.44;6195531;28;20220;-66
2023/06/10 02:57:14;;;;;;;6.85;2.17;;;;;;;16.77;70.96;101847.06;6189118;28;20229;-66
2023/06/10 03:00:35;;;;;;;3.83;1.67;;;;;;;16.79;71.50;101855.94;6192811;28;20721;-67
2023/06/10 03:03:58;;;;;;;4.38;2.58;;;;;;;16.71;71.68;101848.53;6199073;28;20221;-66
2023/06/10 03:07:20;;;;;;;5.20;1.88;;;;;;;16.73;71.66;101859.25;6180298;28;20249;-67
2023/06/10 03:10:42;;;;;;;5.38;1.98;;;;;;;16.58;71.71;101858.06;6200573;28;20359;-67
2023/06/10 03:14:04;;;;;;;4.22;2.60;;;;;;;16.76;71.77;101861.69;6211470;28;20232;-67
2023/06/10 03:17:26;;;;;;;4.47;1.70;;;;;;;16.84;71.49;101867.22;6199582;28;20221;-67
2023/06/10 03:20:48;;;;;;;5.05;2.50;;;;;;;16.83;71.56;101862.81;6208376;28;20221;-67
2023/06/10 03:24:10;;;;;;;1.88;1.65;;;;;;;16.70;71.69;101857.72;6196539;28;20621;-67
2023/06/10 03:27:32;;;;;;;4.65;2.47;;;;;;;16.56;71.71;101860.91;6188419;28;20621;-66
2023/06/10 03:30:56;;;;;;;4.18;2.28;;;;;;;16.58;71.88;101855.34;6210105;28;20225;-67
2023/06/10 03:34:19;;;;;;;3.55;1.95;;;;;;;16.70;72.11;101852.25;6193460;28;20237;-67
2023/06/10 03:37:42;;;;;;;3.08;1.92;;;;;;;16.78;71.89;101862.38;6192310;28;20234;-68
2023/06/10 03:41:03;;;;;;;3.92;2.25;;;;;;;16.91;71.37;101859.31;6197475;28;20248;-68
2023/06/10 03:44:25;;;;;;;2.35;1.55;;;;;;;16.93;71.34;101862.72;6199359;28;20232;-68
2023/06/10 03:47:47;;;;;;;1.88;1.77;;;;;;;17.09;71.24;101865.63;6196736;28;20221;-68
2023/06/10 03:51:10;;;;;;;7.30;2.78;;;;;;;16.98;70.99;101863.97;6198217;28;20242;-67
2023/06/10 03:54:34;;;;;;;3.03;2.13;;;;;;;17.07;70.97;101859.47;6208475;28;20837;-67
2023/06/10 03:57:55;;;;;;;2.83;1.80;;;;;;;17.09;70.97;101862.91;6211722;28;20312;-67
2023/06/10 04:01:17;;;;;;;1.88;1.30;;;;;;;17.18;70.38;101862.00;6213374;28;20722;-67
2023/06/10 04:04:39;;;;;;;3.95;2.30;;;;;;;17.21;70.31;101864.41;6190052;28;20232;-67
2023/06/10 04:08:01;;;;;;;1.85;1.55;;;;;;;17.26;70.17;101860.19;6198983;28;20256;-67
2023/06/10 04:11:23;;;;;;;5.90;2.22;;;;;;;17.32;70.04;101865.03;6211737;28;20237;-68
2023/06/10 04:14:45;;;;;;;3.58;1.90;;;;;;;17.15;70.30;101863.16;6196763;28;20229;-67
2023/06/10 04:18:08;;;;;;;3.45;1.73;;;;;;;17.31;70.27;101862.47;6193832;28;20256;-68
2023/06/10 04:21:29;;;;;;;2.28;1.65;;;;;;;17.32;70.26;101859.56;6201347;28;20233;-67
2023/06/10 04:24:50;;;;;;;6.93;2.85;;;;;;;17.55;70.22;101859.97;6206012;28;20233;-65
2023/06/10 04:28:14;;;;;;;2.58;2.30;;;;;;;17.58;69.51;101863.25;6186811;28;21027;-67
2023/06/10 04:31:36;;;;;;;6.18;1.88;;;;;;;17.61;69.63;101862.06;6198961;28;20237;-67
2023/06/10 04:34:57;;;;;;;1.60;1.50;;;;;;;17.84;69.13;101863.28;6198654;28;20232;-68
2023/06/10 04:38:18;;;;;;;3.05;1.90;;;;;;;17.81;69.00;101858.16;6201527;28;20240;-67
2023/06/10 04:41:39;;;;;;;5.75;1.60;;;;;;;17.82;68.72;101856.28;6200710;28;20260;-67
2023/06/10 04:45:03;;;;;;;1.45;1.30;;;;;;;17.84;68.80;101856.97;6192245;28;20229;-66
2023/06/10 04:48:24;;;;;;;4.70;2.13;;;;;;;17.73;68.88;101857.25;6201879;28;20595;-64
2023/06/10 04:51:46;;;;;;;3.13;2.17;;;;;;;17.90;69.01;101854.47;6180444;28;20320;-66
2023/06/10 04:55:08;;;;;;;1.95;1.55;;;;;;;17.89;69.11;101854.63;6180332;28;20237;-67
2023/06/10 04:58:30;;;;;;;4.90;2.00;;;;;;;18.07;68.77;101856.28;6206001;28;22347;-68
2023/06/10 05:01:52;;;;;;;4.35;2.00;;;;;;;18.17;68.42;101853.44;6194030;28;20498;-67
2023/06/10 05:05:13;;;;;;;3.42;1.60;;;;;;;18.15;68.20;101861.81;6194772;28;20238;-67
2023/06/10 05:08:34;;;;;;;3.20;1.52;;;;;;;18.18;68.31;101849.72;6206295;28;20643;-67
2023/06/10 05:11:55;;;;;;;4.70;1.83;;;;;;;18.28;68.29;101859.50;6205103;28;20562;-68
2023/06/10 05:15:16;;;;;;;3.13;1.90;;;;;;;18.43;67.80;101858.88;6211127;28;20228;-67
2023/06/10 05:18:38;;;;;;;3.13;1.80;;;;;;;18.38;67.76;101858.53;6201596;28;20236;-67
2023/06/10 05:21:59;;;;;;;3.35;1.77;;;;;;;18.74;67.42;101863.69;6201907;28;20510;-66
2023/06/10 05:25:20;;;;;;;1.77;1.48;;;;;;;19.10;66.74;101858.84;6203498;28;20312;-67
2023/06/10 05:28:41;;;;;;;5.97;2.08;;;;;;;18.72;66.46;101859.41;6198013;28;20228;-66
2023/06/10 05:32:03;;;;;;;3.95;1.58;;;;;;;18.83;66.97;101859.97;6202603;28;20241;-68
2023/06/10 05:35:25;;;;;;;2.63;1.70;;;;;;;18.82;66.53;101866.44;6201595;28;20610;-66
2023/06/10 05:38:47;;;;;;;3.47;1.65;;;;;;;18.85;66.82;101866.13;6203298;28;20229;-68
2023/06/10 05:42:08;;;;;;;3.28;1.58;;;;;;;18.95;66.53;101855.91;6204450;28;20673;-67
2023/06/10 05:45:30;;;;;;;5.90;1.40;;;;;;;19.11;66.81;101855.94;6205980;28;20659;-66
2023/06/10 05:48:51;;;;;;;2.40;2.03;;;;;;;19.26;65.76;101850.66;6200942;28;20504;-67
2023/06/10 05:52:13;;;;;;;3.95;2.22;;;;;;;18.99;65.86;101848.22;6190777;28;20260;-67
2023/06/10 05:55:34;;;;;;;2.05;1.27;;;;;;;19.06;66.08;101844.66;6217412;28;20229;-67
2023/06/10 05:58:55;;;;;;;3.78;2.15;;;;;;;19.24;66.10;101843.66;6192677;28;20252;-67
2023/06/10 06:02:16;;;;;;;3.70;2.10;;;;;;;19.34;65.80;101842.50;6187584;28;20621;-66
2023/06/10 06:05:38;;;;;;;2.75;1.15;;;;;;;19.26;65.77;101839.72;6214206;28;20240;-67
2023/06/10 06:09:00;;;;;;;2.65;1.00;;;;;;;19.42;65.65;101852.63;6202981;28;20220;-67
2023/06/10 06:12:21;;;;;;;2.00;1.30;;;;;;;19.27;65.63;101843.31;6185010;28;20236;-68
2023/06/10 06:15:42;;;;;;;2.05;1.83;;;;;;;19.65;65.19;101839.97;6200221;28;21758;-73
2023/06/10 06:19:03;;;;;;;2.50;1.98;;;;;;;19.79;64.81;101839.28;6200807;28;20236;-72
2023/06/10 06:22:24;;;;;;;2.55;1.50;;;;;;;20.20;63.99;101829.97;6190816;28;20594;-74
2023/06/10 06:25:47;;;;;;;3.53;1.98;;;;;;;20.24;63.25;101831.34;6204668;28;20229;-73
2023/06/10 06:29:07;;;;;;;5.97;1.80;;;;;;;19.75;63.92;101837.91;6197335;28;20232;-73
2023/06/10 06:32:28;;;;;;;4.40;2.15;;;;;;;19.61;64.57;101835.88;6194108;28;20232;-72
2023/06/10 06:35:49;;;;;;;3.50;1.90;;;;;;;20.10;63.95;101828.44;6202417;28;20225;-72
2023/06/10 06:39:10;;;;;;;2.92;1.58;;;;;;;20.40;62.91;101844.16;6177838;28;20229;-73
2023/06/10 06:42:33;;;;;;;1.98;1.42;;;;;;;20.57;62.40;101834.81;6203933;28;20295;-73
2023/06/10 06:45:58;;;;;;;3.92;1.92;;;;;;;20.80;61.95;101840.38;6197159;28;20236;-73
2023/06/10 06:49:19;;;;;;;2.65;1.65;;;;;;;20.46;62.13;101840.69;6200369;28;20239;-71
2023/06/10 06:52:40;;;;;;;4.20;2.65;;;;;;;20.32;63.01;101836.78;6185338;28;20321;-73
2023/06/10 06:56:02;;;;;;;2.28;1.70;;;;;;;20.54;62.57;101840.66;6198936;28;20240;-72
2023/06/10 06:59:25;;;;;;;1.70;1.33;;;;;;;20.71;62.34;101843.13;6184368;28;20256;-72
2023/06/10 07:02:46;;;;;;;4.57;2.38;;;;;;;20.77;62.18;101843.47;6198851;28;20673;-72
2023/06/10 07:06:07;;;;;;;5.43;2.33;;;;;;;20.89;61.65;101842.88;6210759;28;20230;-72
2023/06/10 07:09:28;;;;;;;6.18;1.92;;;;;;;20.72;61.69;101846.72;6209231;28;20232;-73
2023/06/10 07:12:49;;;;;;;3.17;2.13;;;;;;;20.91;61.60;101851.78;6200925;28;20232;-73
2023/06/10 07:16:11;;;;;;;7.25;1.98;;;;;;;21.00;61.77;101856.22;6205516;28;20229;-73
2023/06/10 07:19:32;;;;;;;6.95;2.47;;;;;;;20.99;61.63;101861.84;6216548;28;20241;-74
2023/06/10 07:22:53;;;;;;;5.38;2.33;;;;;;;21.13;61.57;101867.44;6200943;28;20228;-72
2023/06/10 07:26:14;;;;;;;4.60;2.80;;;;;;;20.92;61.61;101858.13;6213293;28;20233;-73
2023/06/10 07:29:35;;;;;;;2.42;1.30;;;;;;;21.54;61.04;101851.56;6206638;28;20229;-68
2023/06/10 07:32:58;;;;;;;7.20;2.65;;;;;;;21.24;60.85;101863.44;6190919;28;20237;-68
2023/06/10 07:36:19;;;;;;;7.32;3.03;;;;;;;21.37;61.17;101856.34;6206342;28;20240;-68
2023/06/10 07:39:40;;;;;;;4.38;2.40;;;;;;;21.42;60.83;101848.38;6196718;28;20261;-68
2023/06/10 07:43:01;;;;;;;5.60;2.85;;;;;;;21.44;60.90;101853.72;6182832;28;20229;-68
2023/06/10 07:46:22;;;;;;;6.32;2.92;;;;;;;21.39;61.21;101862.50;6193737;28;20233;-67
2023/06/10 07:49:44;;;;;;;4.43;2.05;;;;;;;21.58;60.89;101849.31;6201632;28;20522;-67
2023/06/10 07:53:05;;;;;;;5.70;1.98;;;;;;;21.60;60.80;101856.31;6205988;28;20240;-67
2023/06/10 07:56:26;;;;;;;4.45;2.40;;;;;;;21.73;60.50;101845.59;6201552;28;20229;-67
2023/06/10 07:59:47;;;;;;;4.28;2.13;;;;;;;21.61;60.72;101849.78;6213973;28;20591;-66
2023/06/10 08:03:08;;;;;;;6.05;2.58;;;;;;;21.72;60.42;101845.75;6202469;28;20228;-67
2023/06/10 08:06:30;;;;;;;3.22;2.08;;;;;;;21.84;60.40;101839.66;6203909;28;22249;-68
2023/06/10 08:09:52;;;;;;;4.40;2.42;;;;;;;22.14;60.28;101848.81;6204830;28;20245;-68
2023/06/10 08:13:13;;;;;;;3.67;1.75;;;;;;;22.33;59.76;101855.66;6206263;28;20244;-67
2023/06/10 08:16:33;;;;;;;3.58;1.80;;;;;;;22.09;59.71;101846.63;6207140;28;20320;-67
2023/06/10 08:19:54;;;;;;;3.65;2.55;;;;;;;22.39;59.59;101844.75;6483221;23;20463;-67
2023/06/10 08:23:16;;;;;;;5.65;2.22;;;;;;;22.58;59.03;101849.72;6222474;28;20259;-67
2023/06/10 08:26:38;;;;;;;2.55;1.95;;;;;;;22.67;58.87;101851.34;6230088;28;20233;-67
2023/06/10 08:30:00;;;;;;;4.70;1.80;;;;;;;22.94;58.24;101847.00;6233042;28;20265;-68
2023/06/10 08:33:21;;;;;;;4.30;2.47;;;;;;;22.78;58.69;101850.00;6220897;28;20279;-68
2023/06/10 08:36:42;;;;;;;3.58;2.42;;;;;;;23.04;57.91;101844.81;6223465;28;20312;-68
2023/06/10 08:40:05;;;;;;;2.53;1.70;;;;;;;23.35;57.13;101850.03;6226429;28;20232;-67
2023/06/10 08:43:33;;;;;;;3.85;2.33;;;;;;;22.98;57.85;101851.94;6230405;28;20299;-67
2023/06/10 08:46:56;;;;;;;2.08;1.88;;;;;;;23.42;57.47;101846.31;6234813;28;20256;-68
2023/06/10 08:50:17;;;;;;;5.90;3.15;;;;;;;23.11;57.06;101851.25;6220156;28;20236;-67
2023/06/10 08:53:47;;;;;;;6.10;2.50;;;;;;;23.37;57.62;101843.31;6214370;28;20826;-67
2023/06/10 08:57:10;;;;;;;3.55;2.10;;;;;;;23.83;56.90;101850.09;6224654;28;20228;-67
2023/06/10 09:00:32;;;;;;;3.03;2.35;;;;;;;24.00;56.39;101845.16;6215984;28;20315;-67
2023/06/10 09:03:53;;;;;;;4.60;1.92;;;;;;;23.99;56.32;101846.19;6199808;28;20282;-71
2023/06/10 09:07:16;;;;;;;1.67;1.13;;;;;;;24.27;55.91;101837.94;6203868;28;20229;-71
2023/06/10 09:10:37;;;;;;;2.17;1.98;;;;;;;24.32;55.99;101835.44;6219334;28;20253;-72
2023/06/10 09:13:59;;;;;;;2.83;1.92;;;;;;;24.49;55.79;101836.84;6225969;28;20716;-72
2023/06/10 09:17:20;;;;;;;3.47;2.22;;;;;;;24.54;55.78;101837.06;6218830;28;20236;-72
2023/06/10 09:20:44;;;;;;;2.92;2.47;;;;;;;24.28;55.06;101842.41;6214416;28;20738;-72
2023/06/10 09:24:06;;;;;;;2.90;1.80;;;;;;;24.35;55.76;101832.25;6225952;28;20265;-71
2023/06/10 09:27:31;;;;;;;1.67;1.58;;;;;;;24.45;55.45;101832.75;6191680;28;20233;-72
2023/06/10 09:31:03;;;;;;;2.22;1.80;;;;;;;24.63;55.37;101832.22;6220645;28;20316;-72
2023/06/10 09:34:26;;;;;;;6.15;3.05;;;;;;;24.87;54.68;101829.81;6218446;28;20334;-71
2023/06/10 09:37:52;;;;;;;2.72;1.80;;;;;;;25.24;54.58;101825.69;6195138;28;20355;-71
2023/06/10 09:41:15;;;;;;;4.55;1.92;;;;;;;25.21;54.51;101821.44;6219401;28;20236;-72
2023/06/10 09:44:35;;;;;;;7.03;3.20;;;;;;;25.02;54.75;101829.66;6216577;28;20515;-72
2023/06/10 09:47:57;;;;;;;2.10;1.90;;;;;;;25.02;54.31;101821.38;6202038;28;20223;-72
2023/06/10 09:51:18;;;;;;;2.33;2.13;;;;;;;25.22;54.15;101823.13;6215097;28;20233;-72
2023/06/10 09:54:39;;;;;;;10.07;3.38;;;;;;;25.24;54.16;101817.41;6214233;28;20241;-71
2023/06/10 09:58:00;;;;;;;2.58;2.05;;;;;;;25.42;53.98;101819.59;6196528;28;20838;-72
2023/06/10 10:01:21;;;;;;;3.72;1.92;;;;;;;25.14;54.25;101827.97;6206843;28;20237;-72
2023/06/10 10:04:44;;;;;;;4.53;2.28;;;;;;;25.48;54.09;101827.88;6215658;28;20257;-71
2023/06/10 10:08:05;;;;;;;2.65;1.67;;;;;;;25.92;53.36;101830.88;6183376;28;20954;-69
2023/06/10 10:11:28;;;;;;;2.40;1.85;;;;;;;25.98;53.35;101827.25;6203620;28;20320;-72
2023/06/10 10:14:49;;;;;;;4.30;3.03;;;;;;;25.71;53.48;101833.00;6220910;28;20230;-75
2023/06/10 10:18:11;;;;;;;9.60;2.20;;;;;;;25.82;53.61;101835.13;6200461;28;20326;-67
2023/06/10 10:21:40;;;;;;;12.20;3.15;;;;;;;26.21;53.75;101824.06;6215181;28;20229;-73
2023/06/10 10:25:04;;;;;;;3.72;2.47;;;;;;;26.33;53.16;101827.88;6218404;28;20464;-77
2023/06/10 10:28:35;;;;;;;3.42;2.45;;;;;;;26.27;52.87;101822.34;6212521;28;20560;-77
2023/06/10 10:32:00;;;;;;;4.10;2.70;;;;;;;26.50;53.07;101814.41;6205490;28;20237;-78
2023/06/10 10:35:23;;;;;;;4.18;2.22;;;;;;;26.37;52.69;101814.47;6192541;28;20569;-74
2023/06/10 10:38:48;;;;;;;1.85;1.67;;;;;;;26.30;52.19;101828.31;6213634;28;20668;-73
2023/06/10 10:42:10;;;;;;;4.60;2.88;;;;;;;26.26;52.75;101816.00;6202099;28;20324;-74
2023/06/10 10:45:31;;;;;;;3.63;1.95;;;;;;;26.44;52.52;101821.69;6203663;28;20233;-73
2023/06/10 10:48:54;;;;;;;5.43;2.67;;;;;;;26.62;51.87;101819.06;6210208;28;20680;-75
2023/06/10 10:52:14;;;;;;;4.20;2.63;;;;;;;26.65;52.33;101807.56;6191444;28;20269;-71
2023/06/10 10:55:37;;;;;;;3.30;2.20;;;;;;;26.65;52.26;101815.88;6213323;28;20630;-74
2023/06/10 10:59:04;;;;;;;3.38;2.30;;;;;;;26.52;52.06;101815.06;6219235;28;20761;-71
2023/06/10 11:02:42;;;;;;;4.97;2.55;;;;;;;26.55;52.02;101814.63;6188857;28;20598;-71
2023/06/10 11:06:13;;;;;;;2.75;1.95;;;;;;;27.07;52.22;101808.03;6197401;28;20523;-72
2023/06/10 11:09:34;;;;;;;4.47;3.33;;;;;;;27.27;51.55;101814.28;6214469;28;20232;-78
2023/06/10 11:12:58;;;;;;;4.70;3.67;;;;;;;27.36;51.31;101813.00;6209648;28;20239;-79
2023/06/10 11:16:20;;;;;;;3.88;2.60;;;;;;;27.43;50.53;101808.28;6207148;28;20229;-73
2023/06/10 11:19:46;;;;;;;3.17;2.22;;;;;;;27.52;50.58;101812.44;6219527;28;21534;-71
2023/06/10 11:23:07;;;;;;;2.83;2.00;;;;;;;27.88;50.50;101818.13;6194411;28;20607;-70
2023/06/10 11:26:35;;;;;;;3.47;2.88;;;;;;;27.83;50.02;101806.84;6204188;28;20222;-73
2023/06/10 11:30:00;;;;;;;5.93;3.17;;;;;;;28.00;50.71;101813.56;6215830;28;20238;-71
2023/06/10 11:33:21;;;;;;;7.05;3.47;;;;;;;27.91;50.34;101802.97;6197062;28;20235;-71
2023/06/10 11:36:45;;;;;;;5.15;3.72;;;;;;;28.34;49.84;101798.28;6205698;28;20229;-72
2023/06/10 11:40:08;;;;;;;3.28;2.42;;;;;;;28.49;49.44;101801.53;6214093;28;20225;-72
2023/06/10 11:43:31;;;;;;;8.38;2.88;;;;;;;28.25;49.68;101797.72;6196146;28;20303;-73
2023/06/10 11:46:53;;;;;;;3.65;2.20;;;;;;;28.20;49.84;101805.91;6203118;28;20611;-72
2023/06/10 11:50:14;;;;;;;5.47;3.30;;;;;;;28.47;49.01;101798.13;6203313;28;20225;-72
2023/06/10 11:53:35;;;;;;;7.97;3.83;;;;;;;28.51;49.66;101809.63;6198247;28;20223;-71
2023/06/10 11:56:59;;;;;;;6.90;2.88;;;;;;;28.71;49.28;101791.66;6203973;28;20260;-70
2023/06/10 12:00:20;;;;;;;3.88;2.63;;;;;;;28.67;49.58;101798.78;6198539;28;20646;-69
2023/06/10 12:03:42;;;;;;;6.45;4.13;;;;;;;28.27;49.74;101794.72;6220078;28;20231;-71
2023/06/10 12:07:04;;;;;;;3.85;3.55;;;;;;;28.81;49.31;101796.69;6212579;28;20225;-71
2023/06/10 12:10:24;;;;;;;4.47;3.00;;;;;;;29.31;48.19;101800.88;6193642;28;20316;-71
2023/06/10 12:13:50;;;;;;;4.13;3.45;;;;;;;29.39;47.96;101795.00;6209256;28;20232;-69
2023/06/10 12:17:11;;;;;;;4.30;3.35;;;;;;;29.50;47.73;101794.16;6204954;28;20233;-70
2023/06/10 12:20:34;;;;;;;3.53;3.13;;;;;;;29.42;47.64;101793.66;6207660;28;20229;-70
2023/06/10 12:24:05;;;;;;;3.25;2.97;;;;;;;29.92;47.19;101787.50;6209984;28;20227;-70
2023/06/10 12:27:28;;;;;;;4.80;3.70;;;;;;;30.07;47.37;101792.56;6200901;28;20244;-70
2023/06/10 12:30:49;;;;;;;8.27;3.78;;;;;;;29.80;46.74;101778.31;6220689;28;20256;-70
2023/06/10 12:34:10;;;;;;;2.90;2.25;;;;;;;30.12;46.48;101770.44;6224428;28;20369;-74
2023/06/10 12:37:34;;;;;;;4.07;2.70;;;;;;;30.13;46.13;101766.56;6200398;28;20241;-69
2023/06/10 12:40:56;;;;;;;4.82;3.25;;;;;;;30.08;45.98;101765.59;6221348;28;20697;-70
2023/06/10 12:44:17;;;;;;;3.42;2.30;;;;;;;30.52;46.13;101762.19;6224791;28;20228;-68
2023/06/10 12:47:39;;;;;;;7.32;3.30;;;;;;;30.59;45.54;101752.59;6201514;28;20232;-72
2023/06/10 12:51:00;;;;;;;6.07;3.45;;;;;;;30.63;45.75;101753.78;6218587;28;20789;-72
2023/06/10 12:54:23;;;;;;;5.85;3.72;;;;;;;30.52;45.28;101746.31;6213569;28;20271;-72
2023/06/10 12:57:53;;;;;;;4.43;3.13;;;;;;;30.78;45.38;101742.97;6208481;28;20853;-69
2023/06/10 13:01:14;;;;;;;6.47;2.97;;;;;;;31.41;44.58;101739.16;6215324;28;22017;-68
2023/06/10 13:04:36;;;;;;;3.45;3.15;;;;;;;31.65;44.76;101739.84;6229371;28;20224;-72
2023/06/10 13:07:56;;;;;;;6.47;3.03;;;;;;;31.67;44.09;101735.69;6212541;28;20235;-70
2023/06/10 13:11:18;;;;;;;2.83;2.63;;;;;;;31.08;44.01;101745.53;6215602;28;20233;-71
2023/06/10 13:14:39;;;;;;;3.15;2.95;;;;;;;31.62;44.05;101743.13;6227966;28;20241;-70
2023/06/10 13:18:00;;;;;;;3.55;3.22;;;;;;;32.41;42.88;101741.81;6212376;28;20348;-70
2023/06/10 13:21:21;;;;;;;5.00;3.70;;;;;;;32.66;40.60;101729.06;6224244;28;20232;-70
2023/06/10 13:24:43;;;;;;;3.50;3.13;;;;;;;34.30;39.02;101729.97;6227983;28;20237;-69
2023/06/10 13:28:05;;;;;;;4.40;3.42;;;;;;;35.82;37.33;101739.59;6207136;28;20502;-69
2023/06/10 13:31:27;;;;;;;4.78;3.85;;;;;;;37.22;35.15;101738.19;6227225;28;20307;-72
2023/06/10 13:34:49;;;;;;;4.63;3.72;;;;;;;37.72;33.92;101728.50;6225999;28;20244;-69
2023/06/10 13:38:10;;;;;;;5.70;3.00;;;;;;;37.94;34.23;101726.06;6207167;28;20236;-69
2023/06/10 13:41:30;;;;;;;3.38;2.83;;;;;;;36.31;36.02;101720.94;6220038;28;20236;-72
2023/06/10 13:44:53;;;;;;;2.60;2.30;;;;;;;36.89;36.13;101719.31;6212829;28;20742;-72
2023/06/10 13:48:14;;;;;;;7.60;3.00;;;;;;;34.67;39.61;101706.63;6217670;28;20228;-71
2023/06/10 13:51:35;;;;;;;4.45;2.50;;;;;;;35.35;38.47;101715.44;6215526;28;20548;-73
2023/06/10 13:54:56;;;;;;;3.30;2.40;;;;;;;35.45;37.99;101714.59;6226734;28;20241;-70
2023/06/10 13:58:17;;;;;;;3.75;2.67;;;;;;;34.17;40.11;101707.22;6211110;28;20225;-69
2023/06/10 14:01:40;;;;;;;3.15;2.63;;;;;;;34.00;40.66;101710.22;6212050;28;20234;-71
2023/06/10 14:05:01;;;;;;;4.03;2.80;;;;;;;32.84;42.43;101713.88;6225516;28;20237;-70
2023/06/10 14:08:22;;;;;;;10.27;3.40;;;;;;;33.11;42.79;101708.34;6209687;28;20585;-74
2023/06/10 14:11:43;;;;;;;3.00;2.35;;;;;;;32.07;43.58;101714.03;6215517;28;20374;-70
2023/06/10 14:15:05;;;;;;;4.25;3.08;;;;;;;32.04;44.14;101711.72;6229674;28;20237;-70
2023/06/10 14:18:27;;;;;;;3.88;2.80;;;;;;;31.73;44.77;101717.09;6210382;28;20229;-72
2023/06/10 14:21:49;;;;;;;6.82;3.00;;;;;;;31.34;45.07;101722.56;6215784;28;20229;-71
2023/06/10 14:25:11;;;;;;;3.40;2.58;;;;;;;30.74;45.99;101713.91;6224473;28;20225;-73
2023/06/10 14:28:32;;;;;;;4.18;2.53;;;;;;;31.12;46.38;101713.28;6214574;28;20609;-72
2023/06/10 14:31:53;;;;;;;5.95;2.83;;;;;;;31.33;45.38;101712.50;6214330;28;20229;-72
2023/06/10 14:35:15;;;;;;;2.25;2.00;;;;;;;31.26;45.43;101720.22;6170763;28;20237;-70
2023/06/10 14:38:36;;;;;;;3.08;2.05;;;;;;;31.46;45.71;101714.16;6214351;28;20224;-70
2023/06/10 14:41:57;;;;;;;3.25;2.67;;;;;;;31.91;44.48;101709.31;6205595;28;20244;-70
2023/06/10 14:45:17;;;;;;;4.63;2.58;;;;;;;31.47;44.87;101718.63;6192136;28;20231;-69
2023/06/10 14:48:38;;;;;;;4.65;2.67;;;;;;;31.56;45.69;101711.56;6215056;28;20583;-70
2023/06/10 14:52:00;;;;;;;3.40;2.47;;;;;;;30.95;45.33;101705.97;6208158;28;20229;-67
2023/06/10 14:55:22;;;;;;;3.55;2.58;;;;;;;31.51;44.88;101719.81;6196917;28;20701;-68
2023/06/10 14:58:43;;;;;;;8.18;2.85;;;;;;;31.35;45.59;101710.34;6196175;28;20695;-71
2023/06/10 15:02:05;;;;;;;6.70;3.65;;;;;;;31.34;46.01;101714.22;6206304;28;20237;-70
2023/06/10 15:05:26;;;;;;;5.90;3.13;;;;;;;31.44;45.44;101714.41;6203224;28;20233;-68
2023/06/10 15:08:48;;;;;;;3.40;3.10;;;;;;;31.26;45.68;101723.00;6213867;28;20220;-69
2023/06/10 15:12:10;;;;;;;3.85;2.55;;;;;;;31.03;45.56;101708.34;6195873;28;20229;-69
2023/06/10 15:15:31;;;;;;;3.30;2.60;;;;;;;31.37;45.52;101713.72;6202022;28;20560;-69
2023/06/10 15:18:52;;;;;;;4.25;3.20;;;;;;;31.16;45.47;101714.47;6212473;28;20232;-70
2023/06/10 15:22:13;;;;;;;3.28;2.60;;;;;;;30.58;46.17;101716.66;6190290;28;20229;-72
2023/06/10 15:25:35;;;;;;;4.72;2.65;;;;;;;30.66;45.91;101710.69;6225455;28;20233;-69
2023/06/10 15:28:56;;;;;;;3.80;2.38;;;;;;;30.87;45.72;101714.75;6215108;28;20263;-71
2023/06/10 15:32:17;;;;;;;2.75;2.53;;;;;;;31.02;45.39;101701.91;6214105;28;20237;-71
2023/06/10 15:35:38;;;;;;;4.07;2.40;;;;;;;30.81;45.48;101705.41;6220963;28;20863;-73
2023/06/10 15:39:01;;;;;;;3.30;2.38;;;;;;;30.41;45.72;101702.66;6227092;28;20314;-72